Time;durP1;ratioP1;P1;durP2;ratioP2;P2;SDS_P1;SDS_P2;PMS_P1;PMS_P2;Temp;Humidity;BMP_temperature;BMP_pressure;BME280_temperature;BME280_humidity;BME280_pressure;Samples;Min_cycle;Max_cycle;Signal;HPM_P1;HPM_P2
2022/10/13 00:01:36;;;;;;;11.05;4.00;;;;;;;;;;4931294;28;20059;-81
2022/10/13 00:04:02;;;;;;;8.35;3.72;;;;;;;;;;4924002;28;20039;-82
2022/10/13 00:06:27;;;;;;;7.82;3.63;;;;;;;;;;4921610;28;20043;-81
2022/10/13 00:08:53;;;;;;;8.38;4.00;;;;;;;;;;4931634;28;20031;-81
2022/10/13 00:11:26;;;;;;;5.80;3.75;;;;;;;;;;4939190;28;20035;-80
2022/10/13 00:13:58;;;;;;;9.70;3.70;;;;;;;;;;4943897;28;20039;-81
2022/10/13 00:16:23;;;;;;;6.20;3.55;;;;;;;;;;4919955;28;20069;-83
2022/10/13 00:18:49;;;;;;;9.45;3.92;;;;;;;;;;4952894;28;20039;-83
2022/10/13 00:21:17;;;;;;;7.00;3.97;;;;;;;;;;4923443;28;20574;-82
2022/10/13 00:23:43;;;;;;;7.60;3.75;;;;;;;;;;4936514;28;20039;-83
2022/10/13 00:26:10;;;;;;;6.75;3.75;;;;;;;;;;4943854;28;20122;-82
2022/10/13 00:28:36;;;;;;;7.35;3.67;;;;;;;;;;4955799;28;20503;-82
2022/10/13 00:31:01;;;;;;;5.95;3.78;;;;;;;;;;4969290;28;20046;-82
2022/10/13 00:33:26;;;;;;;8.32;4.22;;;;;;;;;;4958889;28;20031;-82
2022/10/13 00:35:52;;;;;;;8.55;4.13;;;;;;;;;;4959374;28;20036;-81
2022/10/13 00:38:18;;;;;;;6.30;3.88;;;;;;;;;;4941225;28;20078;-82
2022/10/13 00:40:48;;;;;;;9.30;3.75;;;;;;;;;;4930707;28;20488;-82
2022/10/13 00:43:16;;;;;;;7.35;3.72;;;;;;;;;;4925612;28;20043;-81
2022/10/13 00:45:41;;;;;;;8.77;3.60;;;;;;;;;;4923442;28;20463;-82
2022/10/13 00:48:07;;;;;;;8.25;3.90;;;;;;;;;;4940642;28;20031;-82
2022/10/13 00:50:36;;;;;;;6.13;3.90;;;;;;;;;;4931281;28;20039;-82
2022/10/13 00:53:02;;;;;;;9.15;4.30;;;;;;;;;;4939436;28;20039;-82
2022/10/13 00:55:32;;;;;;;8.10;4.18;;;;;;;;;;4952513;28;20035;-82
2022/10/13 00:58:00;;;;;;;9.20;4.00;;;;;;;;;;4936026;28;20475;-82
2022/10/13 01:00:26;;;;;;;7.88;3.72;;;;;;;;;;4956072;28;20035;-82
2022/10/13 01:02:52;;;;;;;7.45;3.63;;;;;;;;;;4952380;28;20427;-82
2022/10/13 01:05:18;;;;;;;8.00;3.95;;;;;;;;;;4928412;28;20061;-82
2022/10/13 01:07:47;;;;;;;6.07;3.35;;;;;;;;;;4925030;28;20399;-82
2022/10/13 01:10:23;;;;;;;7.28;3.85;;;;;;;;;;4952840;28;20774;-81
2022/10/13 01:13:13;;;;;;;7.70;3.92;;;;;;;;;;4956171;28;20042;-81
2022/10/13 01:16:02;;;;;;;6.85;3.55;;;;;;;;;;4969835;28;20040;-82
2022/10/13 01:19:01;;;;;;;7.18;4.18;;;;;;;;;;4969386;28;20028;-82
2022/10/13 01:21:40;;;;;;;6.88;3.67;;;;;;;;;;4937141;28;20522;-82
2022/10/13 01:24:19;;;;;;;6.30;3.35;;;;;;;;;;4969215;28;20451;-82
2022/10/13 01:27:03;;;;;;;8.35;3.53;;;;;;;;;;4928584;28;20035;-82
2022/10/13 01:29:48;;;;;;;8.52;3.90;;;;;;;;;;4922808;28;20118;-82
2022/10/13 01:32:36;;;;;;;8.02;3.78;;;;;;;;;;4960106;28;20040;-82
2022/10/13 01:35:10;;;;;;;8.18;3.95;;;;;;;;;;4928352;28;20384;-82
2022/10/13 01:37:46;;;;;;;7.65;3.90;;;;;;;;;;4921504;28;21376;-82
2022/10/13 01:40:22;;;;;;;8.00;3.97;;;;;;;;;;4922138;28;20039;-82
2022/10/13 01:43:10;;;;;;;7.45;3.70;;;;;;;;;;4938761;28;20046;-82
2022/10/13 01:45:39;;;;;;;10.85;4.53;;;;;;;;;;4922866;28;20451;-82
2022/10/13 01:48:08;;;;;;;5.68;3.42;;;;;;;;;;4935225;28;20035;-82
2022/10/13 01:50:35;;;;;;;7.68;4.07;;;;;;;;;;4956352;28;20039;-82
2022/10/13 01:53:03;;;;;;;8.70;4.03;;;;;;;;;;4935695;28;20044;-82
2022/10/13 01:55:28;;;;;;;8.98;4.15;;;;;;;;;;4928945;28;20134;-82
2022/10/13 01:57:54;;;;;;;7.93;3.80;;;;;;;;;;4936074;28;20114;-81
2022/10/13 02:00:20;;;;;;;9.55;3.85;;;;;;;;;;4925521;28;20035;-82
2022/10/13 02:03:07;;;;;;;12.07;4.00;;;;;;;;;;4925497;28;20040;-82
2022/10/13 02:05:48;;;;;;;6.97;4.10;;;;;;;;;;4923626;28;20412;-82
2022/10/13 02:08:34;;;;;;;8.30;3.42;;;;;;;;;;4929417;28;20046;-81
2022/10/13 02:11:13;;;;;;;6.03;3.20;;;;;;;;;;4936055;28;20503;-82
2022/10/13 02:13:42;;;;;;;8.98;4.10;;;;;;;;;;4930474;28;20047;-82
2022/10/13 02:16:08;;;;;;;7.15;3.90;;;;;;;;;;4957087;28;20067;-82
2022/10/13 02:18:34;;;;;;;7.55;3.80;;;;;;;;;;4957083;28;20495;-82
2022/10/13 02:21:01;;;;;;;7.93;4.13;;;;;;;;;;4935189;28;20082;-83
2022/10/13 02:23:27;;;;;;;12.75;4.85;;;;;;;;;;4945183;28;20035;-82
2022/10/13 02:25:52;;;;;;;6.75;3.47;;;;;;;;;;4940428;28;20043;-82
2022/10/13 02:28:18;;;;;;;8.98;4.00;;;;;;;;;;4924145;28;20089;-82
2022/10/13 02:30:44;;;;;;;8.55;3.60;;;;;;;;;;4938961;28;20043;-83
2022/10/13 02:33:11;;;;;;;8.90;4.43;;;;;;;;;;4967170;28;20510;-82
2022/10/13 02:35:36;;;;;;;8.45;4.20;;;;;;;;;;4945026;28;22457;-83
2022/10/13 02:38:02;;;;;;;8.30;4.20;;;;;;;;;;4921772;28;20039;-83
2022/10/13 02:40:27;;;;;;;7.35;4.25;;;;;;;;;;4934435;28;20404;-81
2022/10/13 02:42:53;;;;;;;7.32;4.45;;;;;;;;;;4936632;28;20118;-83
2022/10/13 02:45:18;;;;;;;7.93;4.10;;;;;;;;;;4934274;28;20402;-83
2022/10/13 02:47:44;;;;;;;18.73;5.50;;;;;;;;;;4937773;28;20027;-83
2022/10/13 02:50:10;;;;;;;8.45;4.28;;;;;;;;;;4921482;28;20056;-82
2022/10/13 02:52:35;;;;;;;9.05;5.07;;;;;;;;;;4964167;28;20126;-83
2022/10/13 02:55:00;;;;;;;7.45;4.32;;;;;;;;;;4936480;28;20035;-83
2022/10/13 02:57:26;;;;;;;9.95;4.85;;;;;;;;;;4965094;28;20044;-82
2022/10/13 02:59:51;;;;;;;8.95;4.55;;;;;;;;;;4928526;28;20078;-82
2022/10/13 03:02:17;;;;;;;7.70;4.03;;;;;;;;;;4918220;28;20031;-81
2022/10/13 03:04:42;;;;;;;7.15;4.18;;;;;;;;;;4937580;28;20415;-82
2022/10/13 03:07:08;;;;;;;6.65;4.00;;;;;;;;;;4934725;28;20371;-82
2022/10/13 03:09:34;;;;;;;9.15;4.07;;;;;;;;;;4928718;28;20047;-82
2022/10/13 03:11:59;;;;;;;8.23;4.40;;;;;;;;;;4950477;28;20539;-82
2022/10/13 03:14:24;;;;;;;7.18;4.07;;;;;;;;;;4928152;28;20372;-83
2022/10/13 03:16:50;;;;;;;9.55;4.60;;;;;;;;;;4956435;28;20036;-82
2022/10/13 03:19:15;;;;;;;7.93;4.20;;;;;;;;;;4951997;28;20035;-83
2022/10/13 03:21:41;;;;;;;10.07;4.38;;;;;;;;;;4933593;28;20694;-82
2022/10/13 03:24:06;;;;;;;7.57;3.90;;;;;;;;;;4934715;28;20468;-83
2022/10/13 03:26:32;;;;;;;11.02;4.50;;;;;;;;;;4929251;28;20044;-82
2022/10/13 03:28:58;;;;;;;8.60;4.68;;;;;;;;;;4953256;28;20094;-83
2022/10/13 03:31:23;;;;;;;8.30;4.47;;;;;;;;;;4964269;28;20488;-83
2022/10/13 03:33:49;;;;;;;9.13;4.18;;;;;;;;;;4935129;28;20035;-83
2022/10/13 03:36:15;;;;;;;9.70;4.43;;;;;;;;;;4928700;28;20038;-82
2022/10/13 03:38:40;;;;;;;8.60;4.72;;;;;;;;;;4932693;28;20376;-83
2022/10/13 03:41:07;;;;;;;7.63;3.95;;;;;;;;;;4951600;28;20046;-83
2022/10/13 03:43:33;;;;;;;9.70;4.40;;;;;;;;;;4926463;28;20043;-82
2022/10/13 03:46:00;;;;;;;9.00;4.63;;;;;;;;;;4931753;28;20102;-82
2022/10/13 03:48:26;;;;;;;8.60;4.47;;;;;;;;;;4933128;28;20035;-82
2022/10/13 03:50:51;;;;;;;9.85;5.05;;;;;;;;;;4932651;28;20518;-82
2022/10/13 03:53:17;;;;;;;7.28;4.30;;;;;;;;;;4927742;28;20036;-80
2022/10/13 03:55:51;;;;;;;11.57;4.93;;;;;;;;;;4934501;28;20043;-81
2022/10/13 03:58:17;;;;;;;9.38;4.97;;;;;;;;;;4960721;28;20677;-78
2022/10/13 04:00:42;;;;;;;8.93;4.82;;;;;;;;;;4924300;28;20126;-80
2022/10/13 04:03:07;;;;;;;10.75;4.68;;;;;;;;;;4967821;28;20039;-79
2022/10/13 04:05:33;;;;;;;8.45;4.35;;;;;;;;;;4926292;28;20094;-80
2022/10/13 04:07:58;;;;;;;8.98;4.25;;;;;;;;;;4921578;28;20031;-80
2022/10/13 04:10:24;;;;;;;7.85;4.53;;;;;;;;;;4936693;28;20035;-79
2022/10/13 04:12:52;;;;;;;7.57;4.25;;;;;;;;;;4936258;28;20430;-80
2022/10/13 04:15:17;;;;;;;7.15;4.22;;;;;;;;;;4931797;28;20114;-80
2022/10/13 04:17:42;;;;;;;8.07;4.30;;;;;;;;;;4936775;28;20594;-80
2022/10/13 04:20:08;;;;;;;8.23;4.47;;;;;;;;;;4935936;28;20043;-79
2022/10/13 04:22:34;;;;;;;7.88;4.45;;;;;;;;;;4936159;28;20465;-79
2022/10/13 04:25:02;;;;;;;8.43;4.63;;;;;;;;;;4923119;28;20123;-80
2022/10/13 04:27:28;;;;;;;8.27;4.22;;;;;;;;;;4934246;28;20620;-79
2022/10/13 04:29:53;;;;;;;7.03;4.07;;;;;;;;;;4926873;28;20032;-79
2022/10/13 04:32:18;;;;;;;9.00;4.43;;;;;;;;;;4955948;28;20032;-80
2022/10/13 04:34:44;;;;;;;8.82;4.55;;;;;;;;;;4967701;28;20031;-80
2022/10/13 04:37:09;;;;;;;10.45;4.95;;;;;;;;;;4941584;28;20075;-80
2022/10/13 04:39:35;;;;;;;8.68;4.57;;;;;;;;;;4949983;28;20043;-82
2022/10/13 04:42:01;;;;;;;10.10;4.80;;;;;;;;;;4936238;28;20036;-82
2022/10/13 04:44:26;;;;;;;9.02;5.15;;;;;;;;;;4962120;28;20039;-82
2022/10/13 04:46:51;;;;;;;9.32;4.20;;;;;;;;;;4937333;28;20527;-82
2022/10/13 04:49:17;;;;;;;10.23;4.60;;;;;;;;;;4953403;28;20039;-80
2022/10/13 04:51:42;;;;;;;12.05;4.57;;;;;;;;;;4937678;28;20122;-80
2022/10/13 04:54:08;;;;;;;9.60;4.80;;;;;;;;;;4971343;28;20390;-83
2022/10/13 04:56:34;;;;;;;8.55;4.18;;;;;;;;;;4953089;28;20047;-83
2022/10/13 04:59:00;;;;;;;7.82;4.63;;;;;;;;;;4941113;28;20061;-81
2022/10/13 05:01:25;;;;;;;8.55;4.97;;;;;;;;;;4960900;28;20031;-80
2022/10/13 05:03:53;;;;;;;8.63;5.00;;;;;;;;;;4934808;28;20051;-80
2022/10/13 05:06:21;;;;;;;9.57;4.72;;;;;;;;;;4940526;28;20445;-80
2022/10/13 05:08:47;;;;;;;9.23;4.85;;;;;;;;;;4944976;28;20035;-79
2022/10/13 05:11:13;;;;;;;9.25;4.70;;;;;;;;;;4969649;28;20455;-81
2022/10/13 05:13:38;;;;;;;9.85;4.72;;;;;;;;;;4938573;28;20607;-81
2022/10/13 05:16:08;;;;;;;10.55;4.70;;;;;;;;;;4939936;28;20097;-81
2022/10/13 05:18:34;;;;;;;8.13;4.75;;;;;;;;;;4937960;28;20086;-81
2022/10/13 05:21:11;;;;;;;9.52;5.22;;;;;;;;;;4927333;28;20400;-82
2022/10/13 05:23:36;;;;;;;9.13;4.97;;;;;;;;;;4938570;28;20074;-81
2022/10/13 05:26:07;;;;;;;8.95;5.32;;;;;;;;;;4939780;28;20887;-81
2022/10/13 05:28:33;;;;;;;8.93;4.78;;;;;;;;;;4930002;28;20094;-81
2022/10/13 05:31:12;;;;;;;10.18;5.00;;;;;;;;;;4920494;28;20043;-81
2022/10/13 05:33:38;;;;;;;11.95;5.35;;;;;;;;;;4939765;28;20051;-81
2022/10/13 05:36:10;;;;;;;8.98;5.15;;;;;;;;;;4937214;28;20099;-81
2022/10/13 05:38:35;;;;;;;8.60;4.63;;;;;;;;;;4930760;28;20090;-81
2022/10/13 05:41:05;;;;;;;8.98;5.20;;;;;;;;;;4953608;28;20483;-81
2022/10/13 05:43:32;;;;;;;12.32;5.45;;;;;;;;;;4923224;28;20058;-81
2022/10/13 05:45:58;;;;;;;8.35;4.75;;;;;;;;;;4924159;28;20039;-81
2022/10/13 05:48:23;;;;;;;9.73;5.57;;;;;;;;;;4930426;28;20058;-82
2022/10/13 05:50:49;;;;;;;9.05;5.20;;;;;;;;;;4927531;28;20503;-81
2022/10/13 05:53:14;;;;;;;10.10;4.63;;;;;;;;;;4932172;28;20039;-81
2022/10/13 05:55:40;;;;;;;8.27;4.43;;;;;;;;;;4932722;28;20499;-82
2022/10/13 05:58:05;;;;;;;8.73;5.00;;;;;;;;;;4936505;28;20526;-81
2022/10/13 06:00:31;;;;;;;11.30;4.90;;;;;;;;;;4952794;28;20044;-79
2022/10/13 06:03:06;;;;;;;8.85;5.40;;;;;;;;;;4928948;28;20027;-81
2022/10/13 06:05:32;;;;;;;8.68;5.05;;;;;;;;;;4943994;28;20071;-80
2022/10/13 06:07:57;;;;;;;11.10;6.20;;;;;;;;;;4929361;28;20065;-82
2022/10/13 06:10:23;;;;;;;11.07;5.57;;;;;;;;;;4930022;28;20075;-82
2022/10/13 06:12:48;;;;;;;9.13;5.35;;;;;;;;;;4936184;28;20062;-83
2022/10/13 06:15:14;;;;;;;9.77;5.65;;;;;;;;;;4929498;28;20119;-81
2022/10/13 06:17:40;;;;;;;11.57;6.25;;;;;;;;;;4937839;28;20515;-83
2022/10/13 06:20:07;;;;;;;13.80;6.05;;;;;;;;;;4959659;28;20574;-82
2022/10/13 06:22:33;;;;;;;10.38;6.03;;;;;;;;;;4923893;28;20043;-83
2022/10/13 06:24:59;;;;;;;11.10;6.03;;;;;;;;;;4929720;28;20039;-81
2022/10/13 06:27:24;;;;;;;12.48;5.97;;;;;;;;;;4928997;28;20110;-82
2022/10/13 06:29:49;;;;;;;9.15;5.75;;;;;;;;;;4961423;28;20402;-81
2022/10/13 06:32:15;;;;;;;9.30;5.40;;;;;;;;;;4956713;28;20410;-82
2022/10/13 06:34:40;;;;;;;10.73;5.88;;;;;;;;;;4968845;28;20047;-82
2022/10/13 06:37:06;;;;;;;11.43;6.05;;;;;;;;;;4952716;28;20048;-81
2022/10/13 06:39:31;;;;;;;10.13;6.32;;;;;;;;;;4935579;28;20050;-81
2022/10/13 06:41:56;;;;;;;9.90;5.57;;;;;;;;;;4966375;28;20070;-81
2022/10/13 06:44:22;;;;;;;11.05;5.75;;;;;;;;;;4923733;28;20035;-81
2022/10/13 06:46:47;;;;;;;8.85;5.65;;;;;;;;;;4936899;28;20094;-80
2022/10/13 06:49:12;;;;;;;11.27;6.13;;;;;;;;;;4936736;28;20460;-81
2022/10/13 06:51:38;;;;;;;10.05;5.72;;;;;;;;;;4952132;28;20563;-80
2022/10/13 06:54:03;;;;;;;9.55;5.85;;;;;;;;;;4967004;28;20045;-81
2022/10/13 06:56:29;;;;;;;11.70;6.05;;;;;;;;;;4955868;28;20051;-81
2022/10/13 06:58:54;;;;;;;12.20;6.22;;;;;;;;;;4967659;28;20040;-82
2022/10/13 07:01:19;;;;;;;10.57;5.95;;;;;;;;;;4928900;28;20035;-81
2022/10/13 07:03:48;;;;;;;12.00;6.15;;;;;;;;;;4923385;28;20047;-81
2022/10/13 07:06:14;;;;;;;11.30;6.15;;;;;;;;;;4922344;28;20035;-82
2022/10/13 07:08:39;;;;;;;10.90;6.00;;;;;;;;;;4928929;28;20281;-81
2022/10/13 07:11:07;;;;;;;9.50;5.78;;;;;;;;;;4920898;28;20119;-81
2022/10/13 07:13:32;;;;;;;12.93;5.97;;;;;;;;;;4928135;28;20090;-82
2022/10/13 07:15:58;;;;;;;10.82;5.65;;;;;;;;;;4951650;28;20039;-82
2022/10/13 07:18:26;;;;;;;11.98;6.50;;;;;;;;;;4933590;28;20039;-81
2022/10/13 07:20:51;;;;;;;9.80;6.00;;;;;;;;;;4936423;28;20561;-81
2022/10/13 07:23:16;;;;;;;10.05;6.05;;;;;;;;;;4934771;28;20075;-81
2022/10/13 07:25:41;;;;;;;10.55;5.45;;;;;;;;;;4919547;28;20028;-81
2022/10/13 07:28:07;;;;;;;10.52;5.65;;;;;;;;;;4918685;28;20039;-81
2022/10/13 07:30:32;;;;;;;12.73;6.95;;;;;;;;;;4922585;28;20039;-82
2022/10/13 07:32:58;;;;;;;10.70;5.88;;;;;;;;;;4936561;28;20503;-82
2022/10/13 07:35:24;;;;;;;9.20;5.97;;;;;;;;;;4953879;28;20145;-82
2022/10/13 07:37:51;;;;;;;11.73;6.57;;;;;;;;;;4924476;28;20105;-82
2022/10/13 07:40:17;;;;;;;9.10;6.15;;;;;;;;;;4933334;28;20590;-81
2022/10/13 07:42:42;;;;;;;11.00;6.60;;;;;;;;;;4927739;28;20038;-82
2022/10/13 07:45:08;;;;;;;13.07;6.85;;;;;;;;;;4936369;28;20035;-81
2022/10/13 07:47:33;;;;;;;10.40;6.35;;;;;;;;;;4920173;28;20051;-82
2022/10/13 07:49:59;;;;;;;10.40;5.65;;;;;;;;;;4928160;28;20050;-81
2022/10/13 07:52:24;;;;;;;10.75;5.88;;;;;;;;;;4920439;28;20039;-81
2022/10/13 07:54:50;;;;;;;10.32;5.45;;;;;;;;;;4927676;28;20038;-80
2022/10/13 07:57:15;;;;;;;12.85;5.72;;;;;;;;;;4922635;28;20573;-81
2022/10/13 07:59:41;;;;;;;10.07;5.72;;;;;;;;;;4955134;28;20345;-81
2022/10/13 08:02:08;;;;;;;12.60;5.97;;;;;;;;;;4965976;28;20040;-81
2022/10/13 08:04:34;;;;;;;7.75;5.28;;;;;;;;;;4966688;28;20562;-81
2022/10/13 08:06:59;;;;;;;12.05;5.55;;;;;;;;;;4967168;28;20047;-80
2022/10/13 08:09:25;;;;;;;9.52;5.47;;;;;;;;;;4921409;28;20043;-79
2022/10/13 08:11:51;;;;;;;9.98;5.60;;;;;;;;;;4916846;28;20498;-78
2022/10/13 08:14:17;;;;;;;9.15;5.38;;;;;;;;;;4935687;28;20043;-80
2022/10/13 08:16:44;;;;;;;10.88;6.00;;;;;;;;;;4935379;28;20039;-81
2022/10/13 08:19:14;;;;;;;9.73;5.43;;;;;;;;;;4968777;28;20067;-80
2022/10/13 08:21:40;;;;;;;9.55;5.97;;;;;;;;;;4938301;28;20500;-80
2022/10/13 08:24:11;;;;;;;11.20;6.13;;;;;;;;;;4955651;28;20114;-81
2022/10/13 08:26:36;;;;;;;11.43;6.30;;;;;;;;;;4955071;28;20035;-81
2022/10/13 08:29:02;;;;;;;9.32;6.07;;;;;;;;;;4955860;28;20039;-81
2022/10/13 08:31:27;;;;;;;13.02;5.95;;;;;;;;;;4937735;28;20098;-79
2022/10/13 08:33:53;;;;;;;11.48;6.00;;;;;;;;;;4938791;28;20078;-79
2022/10/13 08:36:18;;;;;;;17.40;6.80;;;;;;;;;;4938014;28;20551;-79
2022/10/13 08:38:44;;;;;;;10.10;6.30;;;;;;;;;;4926748;28;20090;-81
2022/10/13 08:41:18;;;;;;;10.15;6.25;;;;;;;;;;4955301;28;20040;-80
2022/10/13 08:43:48;;;;;;;10.07;5.60;;;;;;;;;;4947188;28;20031;-82
2022/10/13 08:46:15;;;;;;;9.55;5.55;;;;;;;;;;4946963;28;20811;-83
2022/10/13 08:48:41;;;;;;;9.10;5.85;;;;;;;;;;4931344;28;20167;-82
2022/10/13 08:51:06;;;;;;;11.07;5.80;;;;;;;;;;4930396;28;20098;-82
2022/10/13 08:53:39;;;;;;;10.25;5.88;;;;;;;;;;4929964;28;20035;-82
2022/10/13 08:56:29;;;;;;;9.50;5.80;;;;;;;;;;4946708;28;20051;-81
2022/10/13 08:58:55;;;;;;;11.70;6.32;;;;;;;;;;4946879;28;20142;-82
2022/10/13 09:01:28;;;;;;;9.80;5.68;;;;;;;;;;4925752;28;20106;-82
2022/10/13 09:04:24;;;;;;;10.45;6.75;;;;;;;;;;4930190;28;20052;-82
2022/10/13 09:07:04;;;;;;;11.38;6.40;;;;;;;;;;4939043;28;20573;-81
2022/10/13 09:09:29;;;;;;;11.85;6.65;;;;;;;;;;4970050;28;20101;-82
2022/10/13 09:11:54;;;;;;;10.52;6.18;;;;;;;;;;4921272;28;20044;-82
2022/10/13 09:14:27;;;;;;;10.23;6.47;;;;;;;;;;4929679;28;20063;-82
2022/10/13 09:16:54;;;;;;;10.43;6.70;;;;;;;;;;4944949;28;20526;-82
2022/10/13 09:19:33;;;;;;;10.77;6.38;;;;;;;;;;4922782;28;20099;-82
2022/10/13 09:22:24;;;;;;;12.20;7.43;;;;;;;;;;4950595;28;20036;-81
2022/10/13 09:25:08;;;;;;;8.90;6.05;;;;;;;;;;4930486;28;20122;-82
2022/10/13 09:27:50;;;;;;;11.63;6.43;;;;;;;;;;4944635;28;20048;-81
2022/10/13 09:30:34;;;;;;;11.43;6.70;;;;;;;;;;4969039;28;20554;-82
2022/10/13 09:33:14;;;;;;;11.80;6.72;;;;;;;;;;4934565;28;20479;-81
2022/10/13 09:35:55;;;;;;;11.80;6.72;;;;;;;;;;4936954;28;20035;-81
2022/10/13 09:38:23;;;;;;;10.10;6.18;;;;;;;;;;4944742;28;20442;-82
2022/10/13 09:41:02;;;;;;;10.13;6.60;;;;;;;;;;4936412;28;20038;-82
2022/10/13 09:43:30;;;;;;;11.70;6.50;;;;;;;;;;4937041;28;20043;-82
2022/10/13 09:45:56;;;;;;;11.15;6.72;;;;;;;;;;4945141;28;20031;-83
2022/10/13 09:48:26;;;;;;;11.48;6.90;;;;;;;;;;4919789;28;20514;-82
2022/10/13 09:50:52;;;;;;;11.43;7.45;;;;;;;;;;4938480;28;20090;-83
2022/10/13 09:53:21;;;;;;;13.27;7.13;;;;;;;;;;4930222;28;20767;-83
2022/10/13 09:55:48;;;;;;;14.00;7.57;;;;;;;;;;4935930;28;20291;-82
2022/10/13 09:58:18;;;;;;;14.52;7.25;;;;;;;;;;4957271;28;20071;-83
2022/10/13 10:00:44;;;;;;;13.50;7.05;;;;;;;;;;4935507;28;20042;-83
2022/10/13 10:03:24;;;;;;;12.30;7.35;;;;;;;;;;4929426;28;20039;-82
2022/10/13 10:05:59;;;;;;;10.80;6.70;;;;;;;;;;4954409;28;20076;-82
2022/10/13 10:08:36;;;;;;;9.30;6.15;;;;;;;;;;4936593;28;20123;-83
2022/10/13 10:11:04;;;;;;;11.35;6.72;;;;;;;;;;4950311;28;20677;-82
2022/10/13 10:13:30;;;;;;;12.30;6.80;;;;;;;;;;4944276;28;20487;-82
2022/10/13 10:16:07;;;;;;;10.63;6.70;;;;;;;;;;4923429;28;20046;-82
2022/10/13 10:18:35;;;;;;;10.18;6.50;;;;;;;;;;4967983;28;20040;-82
2022/10/13 10:21:25;;;;;;;11.05;6.55;;;;;;;;;;4939574;28;20495;-85
2022/10/13 10:23:57;;;;;;;9.70;6.20;;;;;;;;;;4940704;28;20074;-83
2022/10/13 10:26:28;;;;;;;11.52;6.35;;;;;;;;;;4935392;28;20031;-81
2022/10/13 10:29:15;;;;;;;10.50;6.47;;;;;;;;;;4968171;28;20036;-83
2022/10/13 10:31:40;;;;;;;9.15;6.65;;;;;;;;;;4944453;28;20391;-82
2022/10/13 10:34:11;;;;;;;9.82;6.07;;;;;;;;;;4936442;28;20039;-83
2022/10/13 10:37:07;;;;;;;13.50;6.53;;;;;;;;;;4967108;28;20043;-82
2022/10/13 10:40:11;;;;;;;13.90;6.53;;;;;;;;;;4943197;28;20091;-80
2022/10/13 10:42:58;;;;;;;12.35;6.22;;;;;;;;;;4908928;28;20522;-81
2022/10/13 10:45:25;;;;;;;11.43;6.80;;;;;;;;;;4934850;28;20395;-81
2022/10/13 10:47:55;;;;;;;9.80;6.97;;;;;;;;;;4928186;28;20817;-81
2022/10/13 10:50:22;;;;;;;10.25;6.18;;;;;;;;;;4943712;28;20040;-82
2022/10/13 10:53:08;;;;;;;10.13;6.72;;;;;;;;;;4929169;28;20050;-81
2022/10/13 10:55:51;;;;;;;12.07;6.50;;;;;;;;;;4963949;28;20876;-83
2022/10/13 10:58:22;;;;;;;13.10;7.07;;;;;;;;;;4960374;28;20050;-80
2022/10/13 11:01:03;;;;;;;10.05;6.55;;;;;;;;;;4934786;28;20039;-81
2022/10/13 11:03:39;;;;;;;12.05;6.65;;;;;;;;;;4943510;28;20439;-81
2022/10/13 11:06:16;;;;;;;10.23;5.93;;;;;;;;;;4937130;28;20072;-81
2022/10/13 11:08:45;;;;;;;10.52;5.88;;;;;;;;;;4935992;28;20411;-80
2022/10/13 11:11:24;;;;;;;10.35;6.15;;;;;;;;;;4927731;28;20610;-81
2022/10/13 11:14:00;;;;;;;10.65;5.75;;;;;;;;;;4959581;28;20629;-81
2022/10/13 11:16:32;;;;;;;10.35;5.30;;;;;;;;;;4934498;28;20039;-81
2022/10/13 11:19:06;;;;;;;9.88;6.35;;;;;;;;;;4921661;28;20505;-82
2022/10/13 11:21:56;;;;;;;10.02;5.65;;;;;;;;;;4966753;28;20391;-82
2022/10/13 11:24:40;;;;;;;7.97;5.28;;;;;;;;;;4936961;28;20499;-81
2022/10/13 11:27:15;;;;;;;8.63;5.32;;;;;;;;;;4934250;28;20071;-81
2022/10/13 11:29:47;;;;;;;9.43;5.28;;;;;;;;;;4941425;28;20043;-81
2022/10/13 11:35:08;;;;;;;;;;;;;;;;;;4936035;28;20039;-81
2022/10/13 11:37:59;;;;;;;11.13;5.88;;;;;;;;;;4934047;28;20001;-80
2022/10/13 11:40:34;;;;;;;8.82;4.93;;;;;;;;;;4941536;28;20043;-80
2022/10/13 11:43:08;;;;;;;9.32;5.18;;;;;;;;;;4943571;28;20035;-80
2022/10/13 11:45:48;;;;;;;8.55;4.97;;;;;;;;;;4933780;28;20533;-81
2022/10/13 11:48:22;;;;;;;9.10;5.07;;;;;;;;;;4937597;28;20077;-80
2022/10/13 11:51:10;;;;;;;6.88;4.05;;;;;;;;;;4942912;28;20055;-84
2022/10/13 11:53:51;;;;;;;6.85;3.92;;;;;;;;;;4934368;28;20498;-81
2022/10/13 11:56:22;;;;;;;8.18;4.15;;;;;;;;;;4965099;28;20047;-80
2022/10/13 11:58:48;;;;;;;8.00;4.57;;;;;;;;;;4919881;28;20515;-80
2022/10/13 12:01:15;;;;;;;8.27;4.10;;;;;;;;;;4936218;28;20126;-80
2022/10/13 12:03:43;;;;;;;8.88;4.35;;;;;;;;;;4965129;28;20039;-81
2022/10/13 12:06:32;;;;;;;;;;;;;;;;;;4937612;28;20487;-80
2022/10/13 12:09:00;;;;;;;6.88;3.67;;;;;;;;;;4942713;28;20461;-82
2022/10/13 12:11:28;;;;;;;6.45;3.75;;;;;;;;;;4934881;28;20039;-80
2022/10/13 12:13:54;;;;;;;5.25;3.20;;;;;;;;;;4939245;28;20051;-80
2022/10/13 12:16:20;;;;;;;6.80;3.83;;;;;;;;;;4949893;28;20094;-79
2022/10/13 12:18:45;;;;;;;6.63;3.60;;;;;;;;;;4937888;28;20044;-80
2022/10/13 12:21:16;;;;;;;6.47;3.70;;;;;;;;;;4918201;28;20049;-80
2022/10/13 12:23:41;;;;;;;6.57;3.88;;;;;;;;;;4967284;28;20445;-80
2022/10/13 12:26:13;;;;;;;7.35;3.70;;;;;;;;;;4927106;28;20401;-81
2022/10/13 12:28:47;;;;;;;5.65;3.35;;;;;;;;;;4928146;28;20058;-80
2022/10/13 12:31:22;;;;;;;7.65;3.92;;;;;;;;;;4920390;28;20035;-80
2022/10/13 12:34:16;;;;;;;6.70;4.07;;;;;;;;;;4923321;28;20446;-80
2022/10/13 12:36:44;;;;;;;10.88;3.83;;;;;;;;;;4926699;28;20252;-80
2022/10/13 12:39:12;;;;;;;7.88;3.90;;;;;;;;;;4949605;28;20146;-79
2022/10/13 12:41:42;;;;;;;6.85;3.65;;;;;;;;;;4936241;28;20039;-80
2022/10/13 12:44:12;;;;;;;5.75;3.45;;;;;;;;;;4936206;28;20500;-81
2022/10/13 12:46:45;;;;;;;7.72;3.92;;;;;;;;;;4919509;28;20154;-81
2022/10/13 12:49:12;;;;;;;7.13;4.22;;;;;;;;;;4936773;28;20047;-81
2022/10/13 12:51:38;;;;;;;7.18;3.67;;;;;;;;;;4967289;28;21020;-81
2022/10/13 12:54:25;;;;;;;8.02;3.75;;;;;;;;;;4944136;28;20117;-80
2022/10/13 12:56:53;;;;;;;11.18;4.05;;;;;;;;;;4936735;28;20039;-80
2022/10/13 12:59:20;;;;;;;7.72;3.95;;;;;;;;;;4953742;28;20504;-81
2022/10/13 13:01:51;;;;;;;6.22;3.80;;;;;;;;;;4930448;28;20460;-82
2022/10/13 13:04:20;;;;;;;6.80;3.75;;;;;;;;;;4968398;28;20072;-82
2022/10/13 13:06:57;;;;;;;7.03;3.83;;;;;;;;;;4943050;28;20190;-82
2022/10/13 13:09:26;;;;;;;7.20;4.18;;;;;;;;;;4926316;28;20136;-81
2022/10/13 13:12:25;;;;;;;7.15;3.92;;;;;;;;;;4939612;28;20508;-81
2022/10/13 13:14:53;;;;;;;6.18;3.58;;;;;;;;;;4910156;28;20035;-82
2022/10/13 13:17:19;;;;;;;8.80;4.20;;;;;;;;;;4946131;28;20519;-80
2022/10/13 13:19:50;;;;;;;6.75;4.15;;;;;;;;;;4936293;28;20071;-80
2022/10/13 13:22:15;;;;;;;6.20;3.65;;;;;;;;;;4931493;28;20097;-80
2022/10/13 13:24:41;;;;;;;7.03;4.13;;;;;;;;;;4929234;28;20043;-82
2022/10/13 13:27:25;;;;;;;6.72;3.78;;;;;;;;;;4935749;28;20030;-81
2022/10/13 13:29:54;;;;;;;7.88;3.80;;;;;;;;;;4929060;28;20036;-80
2022/10/13 13:32:21;;;;;;;7.25;4.03;;;;;;;;;;4929693;28;20032;-80
2022/10/13 13:34:47;;;;;;;7.40;4.10;;;;;;;;;;4947236;28;20031;-80
2022/10/13 13:37:25;;;;;;;7.10;4.00;;;;;;;;;;4926032;28;20094;-80
2022/10/13 13:39:50;;;;;;;7.85;4.55;;;;;;;;;;4940030;28;20501;-80
2022/10/13 13:42:16;;;;;;;8.00;3.78;;;;;;;;;;4970361;28;20039;-80
2022/10/13 13:44:41;;;;;;;8.57;4.15;;;;;;;;;;4925788;28;20039;-81
2022/10/13 13:47:14;;;;;;;7.63;3.78;;;;;;;;;;4921864;28;20039;-81
2022/10/13 13:49:40;;;;;;;8.52;4.20;;;;;;;;;;4939097;28;20058;-81
2022/10/13 13:52:05;;;;;;;6.80;3.75;;;;;;;;;;4937544;28;20032;-81
2022/10/13 13:54:30;;;;;;;6.90;3.80;;;;;;;;;;4926125;28;20039;-80
2022/10/13 13:56:56;;;;;;;7.20;3.97;;;;;;;;;;4922894;28;20040;-80
2022/10/13 13:59:21;;;;;;;9.07;4.13;;;;;;;;;;4936950;28;20043;-80
2022/10/13 14:01:46;;;;;;;6.43;3.72;;;;;;;;;;4936559;28;20043;-81
2022/10/13 14:04:12;;;;;;;7.85;3.90;;;;;;;;;;4937354;28;20059;-80
2022/10/13 14:06:37;;;;;;;7.10;4.20;;;;;;;;;;4950167;28;20765;-80
2022/10/13 14:09:03;;;;;;;9.77;3.67;;;;;;;;;;4921651;28;20170;-80
2022/10/13 14:11:29;;;;;;;8.65;4.20;;;;;;;;;;4928513;28;20935;-79
2022/10/13 14:13:56;;;;;;;7.50;3.90;;;;;;;;;;4945719;28;20035;-81
2022/10/13 14:16:22;;;;;;;7.90;3.72;;;;;;;;;;4919857;28;20040;-80
2022/10/13 14:18:47;;;;;;;6.70;3.70;;;;;;;;;;4936705;28;20136;-78
2022/10/13 14:21:13;;;;;;;7.82;4.03;;;;;;;;;;4969359;28;20035;-79
2022/10/13 14:23:39;;;;;;;8.18;4.20;;;;;;;;;;4936735;28;20043;-79
2022/10/13 14:26:06;;;;;;;7.25;4.10;;;;;;;;;;4936857;28;20472;-79
2022/10/13 14:28:32;;;;;;;10.23;4.10;;;;;;;;;;4928893;28;20415;-80
2022/10/13 14:30:57;;;;;;;8.07;3.65;;;;;;;;;;4935804;28;20031;-80
2022/10/13 14:33:22;;;;;;;8.23;3.85;;;;;;;;;;4955158;28;20042;-80
2022/10/13 14:35:48;;;;;;;6.03;3.58;;;;;;;;;;4951633;28;20035;-79
2022/10/13 14:38:14;;;;;;;6.43;3.90;;;;;;;;;;4937261;28;20040;-79
2022/10/13 14:40:40;;;;;;;6.78;3.47;;;;;;;;;;4931834;28;21280;-80
2022/10/13 14:43:06;;;;;;;7.70;3.83;;;;;;;;;;4951611;28;20039;-79
2022/10/13 14:45:31;;;;;;;7.93;4.22;;;;;;;;;;4934260;28;20285;-79
2022/10/13 14:47:56;;;;;;;7.00;3.80;;;;;;;;;;4934976;28;20530;-80
2022/10/13 14:50:22;;;;;;;6.65;3.75;;;;;;;;;;4921296;28;20483;-80
2022/10/13 14:52:47;;;;;;;6.93;3.70;;;;;;;;;;4927486;28;20039;-80
2022/10/13 14:55:32;;;;;;;6.60;3.80;;;;;;;;;;4934783;28;20040;-80